sensor_id;sensor_type;location;lat;lon;timestamp;P1;durP1;ratioP1;P2;durP2;ratioP2
1258;SDS011;619;51.472;6.628;2023-09-30T00:01:09;5.03;;;3.03;;
1258;SDS011;619;51.472;6.628;2023-09-30T00:03:40;4.37;;;3.10;;
1258;SDS011;619;51.472;6.628;2023-09-30T00:06:08;6.70;;;3.30;;
1258;SDS011;619;51.472;6.628;2023-09-30T00:08:34;6.77;;;3.20;;
1258;SDS011;619;51.472;6.628;2023-09-30T00:11:00;7.90;;;3.30;;
1258;SDS011;619;51.472;6.628;2023-09-30T00:13:25;3.60;;;2.63;;
1258;SDS011;619;51.472;6.628;2023-09-30T00:15:51;7.83;;;3.93;;
1258;SDS011;619;51.472;6.628;2023-09-30T00:18:17;5.20;;;3.23;;
1258;SDS011;619;51.472;6.628;2023-09-30T00:20:48;5.27;;;3.17;;
1258;SDS011;619;51.472;6.628;2023-09-30T00:23:23;7.70;;;3.80;;
1258;SDS011;619;51.472;6.628;2023-09-30T00:25:49;5.87;;;3.57;;
1258;SDS011;619;51.472;6.628;2023-09-30T00:28:18;6.67;;;3.57;;
1258;SDS011;619;51.472;6.628;2023-09-30T00:30:44;6.90;;;3.20;;
1258;SDS011;619;51.472;6.628;2023-09-30T00:33:12;4.40;;;3.20;;
1258;SDS011;619;51.472;6.628;2023-09-30T00:35:40;6.10;;;4.10;;
1258;SDS011;619;51.472;6.628;2023-09-30T00:38:08;8.00;;;4.00;;
1258;SDS011;619;51.472;6.628;2023-09-30T00:40:35;5.30;;;3.13;;
1258;SDS011;619;51.472;6.628;2023-09-30T00:43:01;6.20;;;3.20;;
1258;SDS011;619;51.472;6.628;2023-09-30T00:45:27;7.80;;;3.67;;
1258;SDS011;619;51.472;6.628;2023-09-30T00:47:53;7.47;;;3.90;;
1258;SDS011;619;51.472;6.628;2023-09-30T00:50:19;5.57;;;3.97;;
1258;SDS011;619;51.472;6.628;2023-09-30T00:52:48;5.07;;;3.00;;
1258;SDS011;619;51.472;6.628;2023-09-30T00:55:19;4.03;;;3.53;;
1258;SDS011;619;51.472;6.628;2023-09-30T00:57:45;5.50;;;3.10;;
1258;SDS011;619;51.472;6.628;2023-09-30T01:00:14;6.27;;;3.90;;
1258;SDS011;619;51.472;6.628;2023-09-30T01:02:41;4.87;;;3.27;;
1258;SDS011;619;51.472;6.628;2023-09-30T01:05:07;5.83;;;5.20;;
1258;SDS011;619;51.472;6.628;2023-09-30T01:07:35;7.10;;;4.10;;
1258;SDS011;619;51.472;6.628;2023-09-30T01:10:02;6.37;;;3.93;;
1258;SDS011;619;51.472;6.628;2023-09-30T01:12:30;7.17;;;3.73;;
1258;SDS011;619;51.472;6.628;2023-09-30T01:14:58;5.53;;;4.03;;
1258;SDS011;619;51.472;6.628;2023-09-30T01:17:27;6.40;;;4.40;;
1258;SDS011;619;51.472;6.628;2023-09-30T01:19:59;4.23;;;3.53;;
1258;SDS011;619;51.472;6.628;2023-09-30T01:22:29;4.20;;;3.10;;
1258;SDS011;619;51.472;6.628;2023-09-30T01:24:58;6.33;;;4.30;;
1258;SDS011;619;51.472;6.628;2023-09-30T01:27:26;5.20;;;3.53;;
1258;SDS011;619;51.472;6.628;2023-09-30T01:29:51;5.50;;;3.37;;
1258;SDS011;619;51.472;6.628;2023-09-30T01:32:17;8.70;;;5.27;;
1258;SDS011;619;51.472;6.628;2023-09-30T01:34:45;7.87;;;3.67;;
1258;SDS011;619;51.472;6.628;2023-09-30T01:37:13;4.83;;;3.13;;
1258;SDS011;619;51.472;6.628;2023-09-30T01:39:41;4.83;;;3.67;;
1258;SDS011;619;51.472;6.628;2023-09-30T01:42:07;4.67;;;3.17;;
1258;SDS011;619;51.472;6.628;2023-09-30T01:44:32;7.83;;;4.07;;
1258;SDS011;619;51.472;6.628;2023-09-30T01:47:03;5.30;;;3.33;;
1258;SDS011;619;51.472;6.628;2023-09-30T01:49:28;4.00;;;2.83;;
1258;SDS011;619;51.472;6.628;2023-09-30T01:51:56;3.87;;;2.23;;
1258;SDS011;619;51.472;6.628;2023-09-30T01:54:27;6.07;;;3.70;;
1258;SDS011;619;51.472;6.628;2023-09-30T01:56:53;4.30;;;3.50;;
1258;SDS011;619;51.472;6.628;2023-09-30T01:59:21;4.50;;;3.67;;
1258;SDS011;619;51.472;6.628;2023-09-30T02:01:51;6.67;;;2.83;;
1258;SDS011;619;51.472;6.628;2023-09-30T02:04:22;5.03;;;3.97;;
1258;SDS011;619;51.472;6.628;2023-09-30T02:06:48;7.80;;;3.90;;
1258;SDS011;619;51.472;6.628;2023-09-30T02:09:16;3.67;;;2.97;;
1258;SDS011;619;51.472;6.628;2023-09-30T02:11:44;7.63;;;3.87;;
1258;SDS011;619;51.472;6.628;2023-09-30T02:14:09;5.17;;;3.03;;
1258;SDS011;619;51.472;6.628;2023-09-30T02:16:38;4.77;;;3.07;;
1258;SDS011;619;51.472;6.628;2023-09-30T02:19:06;6.90;;;3.53;;
1258;SDS011;619;51.472;6.628;2023-09-30T02:21:35;4.77;;;2.70;;
1258;SDS011;619;51.472;6.628;2023-09-30T02:24:04;11.97;;;3.10;;
1258;SDS011;619;51.472;6.628;2023-09-30T02:26:31;8.47;;;3.20;;
1258;SDS011;619;51.472;6.628;2023-09-30T02:29:01;4.30;;;2.87;;
1258;SDS011;619;51.472;6.628;2023-09-30T02:31:27;4.37;;;3.00;;
1258;SDS011;619;51.472;6.628;2023-09-30T02:33:57;5.07;;;3.47;;
1258;SDS011;619;51.472;6.628;2023-09-30T02:36:23;6.07;;;3.50;;
1258;SDS011;619;51.472;6.628;2023-09-30T02:38:52;5.67;;;3.40;;
1258;SDS011;619;51.472;6.628;2023-09-30T02:41:18;5.07;;;2.47;;
1258;SDS011;619;51.472;6.628;2023-09-30T02:43:49;5.10;;;3.37;;
1258;SDS011;619;51.472;6.628;2023-09-30T02:46:17;3.73;;;2.70;;
1258;SDS011;619;51.472;6.628;2023-09-30T02:48:45;5.93;;;3.33;;
1258;SDS011;619;51.472;6.628;2023-09-30T02:51:13;5.77;;;2.90;;
1258;SDS011;619;51.472;6.628;2023-09-30T02:53:39;4.57;;;3.17;;
1258;SDS011;619;51.472;6.628;2023-09-30T02:56:09;3.87;;;2.30;;
1258;SDS011;619;51.472;6.628;2023-09-30T02:58:39;5.10;;;3.27;;
1258;SDS011;619;51.472;6.628;2023-09-30T03:01:05;6.50;;;3.37;;
1258;SDS011;619;51.472;6.628;2023-09-30T03:03:32;3.60;;;2.60;;
1258;SDS011;619;51.472;6.628;2023-09-30T03:06:00;4.60;;;3.40;;
1258;SDS011;619;51.472;6.628;2023-09-30T03:08:28;6.70;;;3.50;;
1258;SDS011;619;51.472;6.628;2023-09-30T03:10:53;6.20;;;3.93;;
1258;SDS011;619;51.472;6.628;2023-09-30T03:13:19;5.20;;;3.30;;
1258;SDS011;619;51.472;6.628;2023-09-30T03:15:46;4.83;;;3.30;;
1258;SDS011;619;51.472;6.628;2023-09-30T03:18:15;4.23;;;2.90;;
1258;SDS011;619;51.472;6.628;2023-09-30T03:20:47;7.80;;;2.97;;
1258;SDS011;619;51.472;6.628;2023-09-30T03:23:15;3.37;;;2.27;;
1258;SDS011;619;51.472;6.628;2023-09-30T03:25:44;4.83;;;3.37;;
1258;SDS011;619;51.472;6.628;2023-09-30T03:28:10;3.87;;;2.57;;
1258;SDS011;619;51.472;6.628;2023-09-30T03:30:36;8.83;;;3.73;;
1258;SDS011;619;51.472;6.628;2023-09-30T03:33:04;7.93;;;3.70;;
1258;SDS011;619;51.472;6.628;2023-09-30T03:35:30;5.00;;;3.00;;
1258;SDS011;619;51.472;6.628;2023-09-30T03:37:57;5.00;;;3.20;;
1258;SDS011;619;51.472;6.628;2023-09-30T03:40:27;5.60;;;3.20;;
1258;SDS011;619;51.472;6.628;2023-09-30T03:42:58;7.70;;;3.90;;
1258;SDS011;619;51.472;6.628;2023-09-30T03:45:24;4.30;;;2.90;;
1258;SDS011;619;51.472;6.628;2023-09-30T03:47:52;5.70;;;3.33;;
1258;SDS011;619;51.472;6.628;2023-09-30T03:50:20;5.40;;;3.77;;
1258;SDS011;619;51.472;6.628;2023-09-30T03:52:49;6.07;;;3.80;;
1258;SDS011;619;51.472;6.628;2023-09-30T03:55:16;6.23;;;3.00;;
1258;SDS011;619;51.472;6.628;2023-09-30T03:57:45;3.40;;;2.73;;
1258;SDS011;619;51.472;6.628;2023-09-30T04:00:13;10.10;;;3.50;;
1258;SDS011;619;51.472;6.628;2023-09-30T04:02:44;4.57;;;3.70;;
1258;SDS011;619;51.472;6.628;2023-09-30T04:05:13;4.17;;;2.60;;
1258;SDS011;619;51.472;6.628;2023-09-30T04:07:42;4.60;;;3.23;;
1258;SDS011;619;51.472;6.628;2023-09-30T04:10:08;6.13;;;3.43;;
1258;SDS011;619;51.472;6.628;2023-09-30T04:12:35;5.27;;;3.00;;
1258;SDS011;619;51.472;6.628;2023-09-30T04:15:00;7.63;;;3.50;;
1258;SDS011;619;51.472;6.628;2023-09-30T04:17:29;9.43;;;3.07;;
1258;SDS011;619;51.472;6.628;2023-09-30T04:19:56;4.20;;;2.90;;
1258;SDS011;619;51.472;6.628;2023-09-30T04:22:22;3.80;;;2.77;;
1258;SDS011;619;51.472;6.628;2023-09-30T04:24:49;5.00;;;2.83;;
1258;SDS011;619;51.472;6.628;2023-09-30T04:27:20;5.50;;;3.27;;
1258;SDS011;619;51.472;6.628;2023-09-30T04:29:50;4.87;;;3.33;;
1258;SDS011;619;51.472;6.628;2023-09-30T04:32:16;5.80;;;3.10;;
1258;SDS011;619;51.472;6.628;2023-09-30T04:34:42;4.70;;;2.53;;
1258;SDS011;619;51.472;6.628;2023-09-30T04:37:11;7.63;;;3.90;;
1258;SDS011;619;51.472;6.628;2023-09-30T04:39:39;6.50;;;3.40;;
1258;SDS011;619;51.472;6.628;2023-09-30T04:42:04;5.10;;;3.37;;
1258;SDS011;619;51.472;6.628;2023-09-30T04:44:30;6.50;;;3.40;;
1258;SDS011;619;51.472;6.628;2023-09-30T04:46:56;4.80;;;3.10;;
1258;SDS011;619;51.472;6.628;2023-09-30T04:49:25;5.23;;;3.13;;
1258;SDS011;619;51.472;6.628;2023-09-30T04:51:52;7.40;;;3.80;;
1258;SDS011;619;51.472;6.628;2023-09-30T04:54:18;4.73;;;3.40;;
1258;SDS011;619;51.472;6.628;2023-09-30T04:56:46;3.70;;;2.80;;
1258;SDS011;619;51.472;6.628;2023-09-30T04:59:12;4.27;;;3.47;;
1258;SDS011;619;51.472;6.628;2023-09-30T05:01:40;6.43;;;3.57;;
1258;SDS011;619;51.472;6.628;2023-09-30T05:04:10;7.73;;;4.83;;
1258;SDS011;619;51.472;6.628;2023-09-30T05:06:36;6.07;;;4.30;;
1258;SDS011;619;51.472;6.628;2023-09-30T05:09:06;5.60;;;3.17;;
1258;SDS011;619;51.472;6.628;2023-09-30T05:11:37;4.70;;;2.80;;
1258;SDS011;619;51.472;6.628;2023-09-30T05:14:04;4.63;;;3.13;;
1258;SDS011;619;51.472;6.628;2023-09-30T05:16:34;6.93;;;3.77;;
1258;SDS011;619;51.472;6.628;2023-09-30T05:19:03;5.20;;;3.80;;
1258;SDS011;619;51.472;6.628;2023-09-30T05:21:33;6.53;;;4.00;;
1258;SDS011;619;51.472;6.628;2023-09-30T05:24:01;5.10;;;3.97;;
1258;SDS011;619;51.472;6.628;2023-09-30T05:26:28;4.43;;;3.00;;
1258;SDS011;619;51.472;6.628;2023-09-30T05:28:57;5.50;;;4.57;;
1258;SDS011;619;51.472;6.628;2023-09-30T05:31:25;5.93;;;4.00;;
1258;SDS011;619;51.472;6.628;2023-09-30T05:33:53;8.23;;;4.50;;
1258;SDS011;619;51.472;6.628;2023-09-30T05:36:23;6.47;;;4.27;;
1258;SDS011;619;51.472;6.628;2023-09-30T05:38:49;6.50;;;5.90;;
1258;SDS011;619;51.472;6.628;2023-09-30T05:41:17;7.17;;;4.23;;
1258;SDS011;619;51.472;6.628;2023-09-30T05:43:45;5.70;;;3.70;;
1258;SDS011;619;51.472;6.628;2023-09-30T05:46:16;7.50;;;4.43;;
1258;SDS011;619;51.472;6.628;2023-09-30T05:48:44;5.57;;;3.90;;
1258;SDS011;619;51.472;6.628;2023-09-30T05:51:12;6.17;;;4.63;;
1258;SDS011;619;51.472;6.628;2023-09-30T05:53:43;8.90;;;4.63;;
1258;SDS011;619;51.472;6.628;2023-09-30T05:56:13;5.73;;;4.80;;
1258;SDS011;619;51.472;6.628;2023-09-30T05:58:40;5.70;;;4.77;;
1258;SDS011;619;51.472;6.628;2023-09-30T06:01:10;6.17;;;4.37;;
1258;SDS011;619;51.472;6.628;2023-09-30T06:03:36;6.90;;;4.10;;
1258;SDS011;619;51.472;6.628;2023-09-30T06:06:10;5.83;;;4.10;;
1258;SDS011;619;51.472;6.628;2023-09-30T06:08:37;8.70;;;4.70;;
1258;SDS011;619;51.472;6.628;2023-09-30T06:11:03;6.67;;;4.40;;
1258;SDS011;619;51.472;6.628;2023-09-30T06:13:34;7.27;;;4.70;;
1258;SDS011;619;51.472;6.628;2023-09-30T06:16:02;9.00;;;5.90;;
1258;SDS011;619;51.472;6.628;2023-09-30T06:18:27;8.20;;;5.30;;
1258;SDS011;619;51.472;6.628;2023-09-30T06:20:55;10.60;;;5.43;;
1258;SDS011;619;51.472;6.628;2023-09-30T06:23:25;6.73;;;5.10;;
1258;SDS011;619;51.472;6.628;2023-09-30T06:25:51;7.90;;;5.37;;
1258;SDS011;619;51.472;6.628;2023-09-30T06:28:19;9.97;;;5.90;;
1258;SDS011;619;51.472;6.628;2023-09-30T06:30:50;8.20;;;5.13;;
1258;SDS011;619;51.472;6.628;2023-09-30T06:33:18;7.13;;;5.40;;
1258;SDS011;619;51.472;6.628;2023-09-30T06:35:46;9.20;;;6.73;;
1258;SDS011;619;51.472;6.628;2023-09-30T06:38:18;7.33;;;5.30;;
1258;SDS011;619;51.472;6.628;2023-09-30T06:40:44;7.33;;;5.77;;
1258;SDS011;619;51.472;6.628;2023-09-30T06:43:13;10.13;;;6.60;;
1258;SDS011;619;51.472;6.628;2023-09-30T06:45:42;10.20;;;5.73;;
1258;SDS011;619;51.472;6.628;2023-09-30T06:48:09;8.50;;;5.87;;
1258;SDS011;619;51.472;6.628;2023-09-30T06:50:43;7.70;;;5.80;;
1258;SDS011;619;51.472;6.628;2023-09-30T06:53:17;10.53;;;7.37;;
1258;SDS011;619;51.472;6.628;2023-09-30T06:55:46;6.40;;;5.03;;
1258;SDS011;619;51.472;6.628;2023-09-30T06:58:12;8.20;;;5.53;;
1258;SDS011;619;51.472;6.628;2023-09-30T07:00:40;7.87;;;5.73;;
1258;SDS011;619;51.472;6.628;2023-09-30T07:03:09;9.53;;;6.37;;
1258;SDS011;619;51.472;6.628;2023-09-30T07:05:40;9.07;;;6.47;;
1258;SDS011;619;51.472;6.628;2023-09-30T07:08:08;14.93;;;7.00;;
1258;SDS011;619;51.472;6.628;2023-09-30T07:10:39;8.63;;;6.70;;
1258;SDS011;619;51.472;6.628;2023-09-30T07:13:07;10.00;;;6.70;;
1258;SDS011;619;51.472;6.628;2023-09-30T07:15:32;10.20;;;7.57;;
1258;SDS011;619;51.472;6.628;2023-09-30T07:18:00;9.10;;;6.00;;
1258;SDS011;619;51.472;6.628;2023-09-30T07:20:28;10.70;;;7.20;;
1258;SDS011;619;51.472;6.628;2023-09-30T07:22:57;9.00;;;6.27;;
1258;SDS011;619;51.472;6.628;2023-09-30T07:25:31;10.47;;;8.10;;
1258;SDS011;619;51.472;6.628;2023-09-30T07:27:57;9.30;;;6.63;;
1258;SDS011;619;51.472;6.628;2023-09-30T07:30:24;9.50;;;7.60;;
1258;SDS011;619;51.472;6.628;2023-09-30T07:32:55;11.93;;;8.60;;
1258;SDS011;619;51.472;6.628;2023-09-30T07:35:21;11.67;;;7.50;;
1258;SDS011;619;51.472;6.628;2023-09-30T07:37:48;8.93;;;6.20;;
1258;SDS011;619;51.472;6.628;2023-09-30T07:40:20;9.33;;;7.53;;
1258;SDS011;619;51.472;6.628;2023-09-30T07:42:46;11.50;;;7.40;;
1258;SDS011;619;51.472;6.628;2023-09-30T07:45:14;9.97;;;7.57;;
1258;SDS011;619;51.472;6.628;2023-09-30T07:47:43;11.90;;;7.30;;
1258;SDS011;619;51.472;6.628;2023-09-30T07:50:14;9.83;;;7.70;;
1258;SDS011;619;51.472;6.628;2023-09-30T07:52:42;9.20;;;7.43;;
1258;SDS011;619;51.472;6.628;2023-09-30T07:55:09;8.93;;;6.70;;
1258;SDS011;619;51.472;6.628;2023-09-30T07:57:40;11.77;;;7.90;;
1258;SDS011;619;51.472;6.628;2023-09-30T08:00:07;9.73;;;7.57;;
1258;SDS011;619;51.472;6.628;2023-09-30T08:02:34;11.00;;;8.00;;
1258;SDS011;619;51.472;6.628;2023-09-30T08:05:05;10.00;;;7.13;;
1258;SDS011;619;51.472;6.628;2023-09-30T08:07:32;8.40;;;6.33;;
1258;SDS011;619;51.472;6.628;2023-09-30T08:10:02;9.13;;;7.50;;
1258;SDS011;619;51.472;6.628;2023-09-30T08:12:30;8.93;;;6.43;;
1258;SDS011;619;51.472;6.628;2023-09-30T08:14:55;6.90;;;5.93;;
1258;SDS011;619;51.472;6.628;2023-09-30T08:17:28;9.77;;;6.77;;
1258;SDS011;619;51.472;6.628;2023-09-30T08:19:54;9.50;;;7.30;;
1258;SDS011;619;51.472;6.628;2023-09-30T08:22:19;11.47;;;6.90;;
1258;SDS011;619;51.472;6.628;2023-09-30T08:24:50;9.40;;;6.77;;
1258;SDS011;619;51.472;6.628;2023-09-30T08:27:16;9.33;;;6.70;;
1258;SDS011;619;51.472;6.628;2023-09-30T08:29:42;11.77;;;6.87;;
1258;SDS011;619;51.472;6.628;2023-09-30T08:32:08;8.00;;;6.80;;
1258;SDS011;619;51.472;6.628;2023-09-30T08:34:33;8.97;;;6.53;;
1258;SDS011;619;51.472;6.628;2023-09-30T08:37:01;9.70;;;6.43;;
1258;SDS011;619;51.472;6.628;2023-09-30T08:39:27;9.17;;;6.10;;
1258;SDS011;619;51.472;6.628;2023-09-30T08:41:54;8.27;;;6.40;;
1258;SDS011;619;51.472;6.628;2023-09-30T08:44:21;6.90;;;6.17;;
1258;SDS011;619;51.472;6.628;2023-09-30T08:46:47;9.27;;;6.37;;
1258;SDS011;619;51.472;6.628;2023-09-30T08:49:14;8.60;;;6.30;;
1258;SDS011;619;51.472;6.628;2023-09-30T08:51:43;11.40;;;6.80;;
1258;SDS011;619;51.472;6.628;2023-09-30T08:54:09;8.33;;;6.33;;
1258;SDS011;619;51.472;6.628;2023-09-30T08:56:37;7.70;;;6.27;;
1258;SDS011;619;51.472;6.628;2023-09-30T08:59:08;8.27;;;6.53;;
1258;SDS011;619;51.472;6.628;2023-09-30T09:01:36;6.10;;;5.33;;
1258;SDS011;619;51.472;6.628;2023-09-30T09:04:04;6.60;;;4.40;;
1258;SDS011;619;51.472;6.628;2023-09-30T09:06:32;7.10;;;5.73;;
1258;SDS011;619;51.472;6.628;2023-09-30T09:09:13;11.17;;;6.33;;
1258;SDS011;619;51.472;6.628;2023-09-30T09:11:42;8.53;;;5.63;;
1258;SDS011;619;51.472;6.628;2023-09-30T09:14:11;8.87;;;6.30;;
1258;SDS011;619;51.472;6.628;2023-09-30T09:16:37;6.63;;;5.07;;
1258;SDS011;619;51.472;6.628;2023-09-30T09:19:19;7.10;;;5.70;;
1258;SDS011;619;51.472;6.628;2023-09-30T09:24:26;8.37;;;4.90;;
1258;SDS011;619;51.472;6.628;2023-09-30T09:26:53;9.43;;;5.37;;
1258;SDS011;619;51.472;6.628;2023-09-30T09:29:32;7.40;;;5.67;;
1258;SDS011;619;51.472;6.628;2023-09-30T09:32:09;11.87;;;7.63;;
1258;SDS011;619;51.472;6.628;2023-09-30T09:34:40;7.70;;;5.63;;
1258;SDS011;619;51.472;6.628;2023-09-30T09:37:18;11.90;;;8.70;;
1258;SDS011;619;51.472;6.628;2023-09-30T09:39:54;12.60;;;6.80;;
1258;SDS011;619;51.472;6.628;2023-09-30T09:44:58;6.23;;;4.60;;
1258;SDS011;619;51.472;6.628;2023-09-30T09:47:28;6.63;;;4.50;;
1258;SDS011;619;51.472;6.628;2023-09-30T09:49:57;4.90;;;4.23;;
1258;SDS011;619;51.472;6.628;2023-09-30T09:52:24;6.47;;;4.57;;
1258;SDS011;619;51.472;6.628;2023-09-30T09:54:50;6.10;;;4.70;;
1258;SDS011;619;51.472;6.628;2023-09-30T09:57:19;6.33;;;4.33;;
1258;SDS011;619;51.472;6.628;2023-09-30T09:59:45;9.17;;;5.20;;
1258;SDS011;619;51.472;6.628;2023-09-30T10:02:12;9.10;;;5.30;;
1258;SDS011;619;51.472;6.628;2023-09-30T10:04:42;8.10;;;5.27;;
1258;SDS011;619;51.472;6.628;2023-09-30T10:07:10;14.07;;;6.10;;
1258;SDS011;619;51.472;6.628;2023-09-30T10:09:51;8.20;;;5.77;;
1258;SDS011;619;51.472;6.628;2023-09-30T10:12:23;5.63;;;4.80;;
1258;SDS011;619;51.472;6.628;2023-09-30T10:14:51;6.40;;;4.97;;
1258;SDS011;619;51.472;6.628;2023-09-30T10:17:17;6.33;;;4.63;;
1258;SDS011;619;51.472;6.628;2023-09-30T10:20:04;8.47;;;5.97;;
1258;SDS011;619;51.472;6.628;2023-09-30T10:22:34;6.73;;;4.47;;
1258;SDS011;619;51.472;6.628;2023-09-30T10:25:00;7.20;;;4.30;;
1258;SDS011;619;51.472;6.628;2023-09-30T10:27:46;7.07;;;3.87;;
1258;SDS011;619;51.472;6.628;2023-09-30T10:30:13;6.97;;;4.50;;
1258;SDS011;619;51.472;6.628;2023-09-30T10:33:07;6.77;;;4.53;;
1258;SDS011;619;51.472;6.628;2023-09-30T10:40:51;7.70;;;4.10;;
1258;SDS011;619;51.472;6.628;2023-09-30T10:46:00;6.50;;;4.17;;
1258;SDS011;619;51.472;6.628;2023-09-30T10:48:32;6.63;;;5.27;;
1258;SDS011;619;51.472;6.628;2023-09-30T10:53:46;8.53;;;5.60;;
1258;SDS011;619;51.472;6.628;2023-09-30T10:56:13;4.43;;;3.63;;
1258;SDS011;619;51.472;6.628;2023-09-30T11:01:11;7.10;;;5.33;;
1258;SDS011;619;51.472;6.628;2023-09-30T11:03:40;4.43;;;3.13;;
1258;SDS011;619;51.472;6.628;2023-09-30T11:06:07;8.07;;;4.13;;
1258;SDS011;619;51.472;6.628;2023-09-30T11:08:32;4.00;;;3.60;;
1258;SDS011;619;51.472;6.628;2023-09-30T11:11:01;7.20;;;4.37;;
1258;SDS011;619;51.472;6.628;2023-09-30T11:13:31;6.63;;;4.70;;
1258;SDS011;619;51.472;6.628;2023-09-30T11:16:03;5.40;;;4.30;;
1258;SDS011;619;51.472;6.628;2023-09-30T11:18:33;6.23;;;5.17;;
1258;SDS011;619;51.472;6.628;2023-09-30T11:21:03;6.03;;;5.00;;
1258;SDS011;619;51.472;6.628;2023-09-30T11:23:33;3.73;;;3.33;;
1258;SDS011;619;51.472;6.628;2023-09-30T11:25:59;4.77;;;3.50;;
1258;SDS011;619;51.472;6.628;2023-09-30T11:28:35;6.43;;;4.53;;
1258;SDS011;619;51.472;6.628;2023-09-30T11:31:07;7.50;;;4.27;;
1258;SDS011;619;51.472;6.628;2023-09-30T11:33:48;6.57;;;4.90;;
1258;SDS011;619;51.472;6.628;2023-09-30T11:36:15;4.33;;;3.93;;
1258;SDS011;619;51.472;6.628;2023-09-30T11:38:44;7.80;;;4.90;;
1258;SDS011;619;51.472;6.628;2023-09-30T11:41:16;5.37;;;4.53;;
1258;SDS011;619;51.472;6.628;2023-09-30T11:46:47;6.50;;;4.80;;
1258;SDS011;619;51.472;6.628;2023-09-30T11:49:27;5.67;;;4.63;;
1258;SDS011;619;51.472;6.628;2023-09-30T11:51:53;8.33;;;5.83;;
1258;SDS011;619;51.472;6.628;2023-09-30T11:54:22;4.60;;;4.10;;
1258;SDS011;619;51.472;6.628;2023-09-30T11:56:48;5.43;;;4.93;;
1258;SDS011;619;51.472;6.628;2023-09-30T11:59:15;6.13;;;5.20;;
1258;SDS011;619;51.472;6.628;2023-09-30T12:01:44;5.77;;;4.60;;
1258;SDS011;619;51.472;6.628;2023-09-30T12:04:10;5.30;;;4.70;;
1258;SDS011;619;51.472;6.628;2023-09-30T12:06:36;4.57;;;4.13;;
1258;SDS011;619;51.472;6.628;2023-09-30T12:09:03;5.80;;;3.97;;
1258;SDS011;619;51.472;6.628;2023-09-30T12:11:31;5.63;;;5.17;;
1258;SDS011;619;51.472;6.628;2023-09-30T12:13:56;4.10;;;3.70;;
1258;SDS011;619;51.472;6.628;2023-09-30T12:16:25;4.00;;;3.60;;
1258;SDS011;619;51.472;6.628;2023-09-30T12:18:51;3.67;;;2.90;;
1258;SDS011;619;51.472;6.628;2023-09-30T12:21:19;6.13;;;3.27;;
1258;SDS011;619;51.472;6.628;2023-09-30T12:23:45;5.03;;;3.03;;
1258;SDS011;619;51.472;6.628;2023-09-30T12:26:14;4.03;;;3.63;;
1258;SDS011;619;51.472;6.628;2023-09-30T12:28:44;3.70;;;2.90;;
1258;SDS011;619;51.472;6.628;2023-09-30T12:31:10;4.03;;;3.63;;
1258;SDS011;619;51.472;6.628;2023-09-30T12:33:39;4.47;;;3.80;;
1258;SDS011;619;51.472;6.628;2023-09-30T12:36:05;3.37;;;3.07;;
1258;SDS011;619;51.472;6.628;2023-09-30T12:38:33;3.90;;;3.30;;
1258;SDS011;619;51.472;6.628;2023-09-30T12:40:59;4.07;;;3.67;;
1258;SDS011;619;51.472;6.628;2023-09-30T12:43:28;4.27;;;3.37;;
1258;SDS011;619;51.472;6.628;2023-09-30T12:45:54;4.03;;;2.73;;
1258;SDS011;619;51.472;6.628;2023-09-30T12:48:22;4.60;;;2.90;;
1258;SDS011;619;51.472;6.628;2023-09-30T12:50:47;4.30;;;3.30;;
1258;SDS011;619;51.472;6.628;2023-09-30T12:53:13;5.87;;;5.00;;
1258;SDS011;619;51.472;6.628;2023-09-30T12:55:39;4.27;;;3.60;;
1258;SDS011;619;51.472;6.628;2023-09-30T12:58:04;4.40;;;4.00;;
1258;SDS011;619;51.472;6.628;2023-09-30T13:00:31;3.37;;;3.07;;
1258;SDS011;619;51.472;6.628;2023-09-30T13:02:58;4.80;;;3.13;;
1258;SDS011;619;51.472;6.628;2023-09-30T13:05:25;7.70;;;4.10;;
1258;SDS011;619;51.472;6.628;2023-09-30T13:07:50;6.10;;;3.43;;
1258;SDS011;619;51.472;6.628;2023-09-30T13:10:17;5.83;;;4.00;;
1258;SDS011;619;51.472;6.628;2023-09-30T13:12:44;4.07;;;3.60;;
1258;SDS011;619;51.472;6.628;2023-09-30T13:15:09;4.90;;;4.20;;
1258;SDS011;619;51.472;6.628;2023-09-30T13:17:35;5.20;;;3.63;;
1258;SDS011;619;51.472;6.628;2023-09-30T13:20:03;4.57;;;3.10;;
1258;SDS011;619;51.472;6.628;2023-09-30T13:22:30;4.70;;;3.30;;
1258;SDS011;619;51.472;6.628;2023-09-30T13:25:00;4.53;;;3.70;;
1258;SDS011;619;51.472;6.628;2023-09-30T13:27:27;4.00;;;3.33;;
1258;SDS011;619;51.472;6.628;2023-09-30T13:29:53;3.53;;;3.20;;
1258;SDS011;619;51.472;6.628;2023-09-30T13:32:21;3.70;;;3.20;;
1258;SDS011;619;51.472;6.628;2023-09-30T13:34:47;3.90;;;2.97;;
1258;SDS011;619;51.472;6.628;2023-09-30T13:37:13;4.97;;;2.90;;
1258;SDS011;619;51.472;6.628;2023-09-30T13:39:43;4.60;;;3.20;;
1258;SDS011;619;51.472;6.628;2023-09-30T13:42:11;3.80;;;2.60;;
1258;SDS011;619;51.472;6.628;2023-09-30T13:44:37;3.87;;;3.47;;
1258;SDS011;619;51.472;6.628;2023-09-30T13:47:05;4.33;;;3.30;;
1258;SDS011;619;51.472;6.628;2023-09-30T13:49:30;3.77;;;3.27;;
1258;SDS011;619;51.472;6.628;2023-09-30T13:51:58;3.43;;;2.70;;
1258;SDS011;619;51.472;6.628;2023-09-30T13:54:24;4.10;;;3.53;;
1258;SDS011;619;51.472;6.628;2023-09-30T13:56:50;5.13;;;3.17;;
1258;SDS011;619;51.472;6.628;2023-09-30T13:59:15;5.50;;;3.40;;
1258;SDS011;619;51.472;6.628;2023-09-30T14:01:43;5.00;;;3.30;;
1258;SDS011;619;51.472;6.628;2023-09-30T14:04:09;4.67;;;3.17;;
1258;SDS011;619;51.472;6.628;2023-09-30T14:06:37;7.23;;;3.63;;
1258;SDS011;619;51.472;6.628;2023-09-30T14:09:03;5.37;;;4.10;;
1258;SDS011;619;51.472;6.628;2023-09-30T14:11:31;4.77;;;3.00;;
1258;SDS011;619;51.472;6.628;2023-09-30T14:13:59;4.70;;;3.90;;
1258;SDS011;619;51.472;6.628;2023-09-30T14:16:27;10.10;;;6.50;;
1258;SDS011;619;51.472;6.628;2023-09-30T14:18:55;3.87;;;3.40;;
1258;SDS011;619;51.472;6.628;2023-09-30T14:21:23;3.50;;;3.20;;
1258;SDS011;619;51.472;6.628;2023-09-30T14:23:51;5.63;;;4.37;;
1258;SDS011;619;51.472;6.628;2023-09-30T14:26:19;4.13;;;3.07;;
1258;SDS011;619;51.472;6.628;2023-09-30T14:28:45;3.63;;;3.17;;
1258;SDS011;619;51.472;6.628;2023-09-30T14:31:13;4.40;;;2.70;;
1258;SDS011;619;51.472;6.628;2023-09-30T14:33:44;3.60;;;2.50;;
1258;SDS011;619;51.472;6.628;2023-09-30T14:36:12;3.60;;;2.60;;
1258;SDS011;619;51.472;6.628;2023-09-30T14:38:38;5.33;;;2.70;;
1258;SDS011;619;51.472;6.628;2023-09-30T14:41:07;3.97;;;2.90;;
1258;SDS011;619;51.472;6.628;2023-09-30T14:43:36;4.87;;;2.57;;
1258;SDS011;619;51.472;6.628;2023-09-30T14:46:02;3.23;;;2.13;;
1258;SDS011;619;51.472;6.628;2023-09-30T14:48:28;4.33;;;2.33;;
1258;SDS011;619;51.472;6.628;2023-09-30T14:50:54;5.80;;;2.53;;
1258;SDS011;619;51.472;6.628;2023-09-30T14:53:23;4.03;;;2.60;;
1258;SDS011;619;51.472;6.628;2023-09-30T14:55:48;3.20;;;2.83;;
1258;SDS011;619;51.472;6.628;2023-09-30T14:58:16;3.70;;;2.17;;
1258;SDS011;619;51.472;6.628;2023-09-30T15:00:42;2.97;;;2.20;;
1258;SDS011;619;51.472;6.628;2023-09-30T15:03:10;3.83;;;2.30;;
1258;SDS011;619;51.472;6.628;2023-09-30T15:05:36;2.73;;;2.00;;
1258;SDS011;619;51.472;6.628;2023-09-30T15:08:06;4.80;;;2.50;;
1258;SDS011;619;51.472;6.628;2023-09-30T15:10:35;3.80;;;3.17;;
1258;SDS011;619;51.472;6.628;2023-09-30T15:13:01;6.03;;;4.40;;
1258;SDS011;619;51.472;6.628;2023-09-30T15:15:35;5.33;;;3.90;;
1258;SDS011;619;51.472;6.628;2023-09-30T15:18:01;6.07;;;4.27;;
1258;SDS011;619;51.472;6.628;2023-09-30T15:20:27;4.30;;;3.33;;
1258;SDS011;619;51.472;6.628;2023-09-30T15:22:53;4.83;;;3.13;;
1258;SDS011;619;51.472;6.628;2023-09-30T15:25:18;4.37;;;3.60;;
1258;SDS011;619;51.472;6.628;2023-09-30T15:27:48;4.30;;;3.43;;
1258;SDS011;619;51.472;6.628;2023-09-30T15:30:14;5.40;;;3.30;;
1258;SDS011;619;51.472;6.628;2023-09-30T15:32:40;5.60;;;3.17;;
1258;SDS011;619;51.472;6.628;2023-09-30T15:35:08;4.03;;;2.57;;
1258;SDS011;619;51.472;6.628;2023-09-30T15:37:34;4.10;;;3.13;;
1258;SDS011;619;51.472;6.628;2023-09-30T15:40:02;9.03;;;6.60;;
1258;SDS011;619;51.472;6.628;2023-09-30T15:42:28;4.30;;;3.03;;
1258;SDS011;619;51.472;6.628;2023-09-30T15:44:54;5.33;;;3.40;;
1258;SDS011;619;51.472;6.628;2023-09-30T15:47:23;6.20;;;5.00;;
1258;SDS011;619;51.472;6.628;2023-09-30T15:49:51;5.83;;;4.43;;
1258;SDS011;619;51.472;6.628;2023-09-30T15:52:19;5.50;;;3.27;;
1258;SDS011;619;51.472;6.628;2023-09-30T15:54:47;8.90;;;7.17;;
1258;SDS011;619;51.472;6.628;2023-09-30T15:57:12;3.90;;;2.93;;